sensor_id;sensor_type;location;lat;lon;timestamp;P1;durP1;ratioP1;P2;durP2;ratioP2
49510;SDS011;35413;48.776;9.204;2022-11-15T00:00:44;3.17;;;1.70;;
49510;SDS011;35413;48.776;9.204;2022-11-15T00:03:12;2.47;;;1.70;;
49510;SDS011;35413;48.776;9.204;2022-11-15T00:05:39;4.00;;;2.05;;
49510;SDS011;35413;48.776;9.204;2022-11-15T00:08:05;4.25;;;1.60;;
49510;SDS011;35413;48.776;9.204;2022-11-15T00:10:31;4.22;;;2.20;;
49510;SDS011;35413;48.776;9.204;2022-11-15T00:12:57;2.25;;;1.60;;
49510;SDS011;35413;48.776;9.204;2022-11-15T00:15:23;1.77;;;1.30;;
49510;SDS011;35413;48.776;9.204;2022-11-15T00:17:49;5.85;;;2.20;;
49510;SDS011;35413;48.776;9.204;2022-11-15T00:20:16;3.47;;;1.95;;
49510;SDS011;35413;48.776;9.204;2022-11-15T00:22:42;1.95;;;1.70;;
49510;SDS011;35413;48.776;9.204;2022-11-15T00:25:08;3.40;;;1.70;;
49510;SDS011;35413;48.776;9.204;2022-11-15T00:27:34;3.17;;;2.35;;
49510;SDS011;35413;48.776;9.204;2022-11-15T00:30:00;2.50;;;1.85;;
49510;SDS011;35413;48.776;9.204;2022-11-15T00:32:27;3.03;;;2.20;;
49510;SDS011;35413;48.776;9.204;2022-11-15T00:34:56;2.97;;;1.70;;
49510;SDS011;35413;48.776;9.204;2022-11-15T00:37:22;2.80;;;1.75;;
49510;SDS011;35413;48.776;9.204;2022-11-15T00:39:48;2.45;;;1.70;;
49510;SDS011;35413;48.776;9.204;2022-11-15T00:42:14;2.42;;;1.60;;
49510;SDS011;35413;48.776;9.204;2022-11-15T00:44:40;2.95;;;1.80;;
49510;SDS011;35413;48.776;9.204;2022-11-15T00:47:06;3.28;;;1.58;;
49510;SDS011;35413;48.776;9.204;2022-11-15T00:49:32;7.10;;;2.53;;
49510;SDS011;35413;48.776;9.204;2022-11-15T00:51:57;2.08;;;1.40;;
49510;SDS011;35413;48.776;9.204;2022-11-15T00:54:23;2.90;;;1.90;;
49510;SDS011;35413;48.776;9.204;2022-11-15T00:56:49;2.83;;;1.70;;
49510;SDS011;35413;48.776;9.204;2022-11-15T00:59:15;2.65;;;1.77;;
49510;SDS011;35413;48.776;9.204;2022-11-15T01:01:41;2.50;;;2.03;;
49510;SDS011;35413;48.776;9.204;2022-11-15T01:04:07;3.17;;;1.60;;
49510;SDS011;35413;48.776;9.204;2022-11-15T01:06:33;2.78;;;1.73;;
49510;SDS011;35413;48.776;9.204;2022-11-15T01:08:59;2.28;;;1.38;;
49510;SDS011;35413;48.776;9.204;2022-11-15T01:11:25;1.98;;;1.60;;
49510;SDS011;35413;48.776;9.204;2022-11-15T01:13:51;3.50;;;2.15;;
49510;SDS011;35413;48.776;9.204;2022-11-15T01:16:17;2.67;;;1.58;;
49510;SDS011;35413;48.776;9.204;2022-11-15T01:18:44;2.75;;;1.58;;
49510;SDS011;35413;48.776;9.204;2022-11-15T01:21:10;2.67;;;1.52;;
49510;SDS011;35413;48.776;9.204;2022-11-15T01:23:37;2.22;;;1.70;;
49510;SDS011;35413;48.776;9.204;2022-11-15T01:26:03;2.33;;;1.60;;
49510;SDS011;35413;48.776;9.204;2022-11-15T01:28:31;2.17;;;1.52;;
49510;SDS011;35413;48.776;9.204;2022-11-15T01:30:58;2.90;;;1.90;;
49510;SDS011;35413;48.776;9.204;2022-11-15T01:33:24;2.13;;;1.52;;
49510;SDS011;35413;48.776;9.204;2022-11-15T01:35:50;1.95;;;1.50;;
49510;SDS011;35413;48.776;9.204;2022-11-15T01:38:16;2.88;;;1.88;;
49510;SDS011;35413;48.776;9.204;2022-11-15T01:40:42;2.03;;;1.45;;
49510;SDS011;35413;48.776;9.204;2022-11-15T01:43:27;3.03;;;1.40;;
49510;SDS011;35413;48.776;9.204;2022-11-15T01:46:09;2.78;;;1.70;;
49510;SDS011;35413;48.776;9.204;2022-11-15T01:48:40;3.00;;;2.10;;
49510;SDS011;35413;48.776;9.204;2022-11-15T01:51:07;1.90;;;1.60;;
49510;SDS011;35413;48.776;9.204;2022-11-15T01:53:34;2.63;;;1.65;;
49510;SDS011;35413;48.776;9.204;2022-11-15T01:56:03;1.85;;;1.52;;
49510;SDS011;35413;48.776;9.204;2022-11-15T01:58:30;2.38;;;1.67;;
49510;SDS011;35413;48.776;9.204;2022-11-15T02:00:57;2.05;;;1.40;;
49510;SDS011;35413;48.776;9.204;2022-11-15T02:03:25;2.30;;;1.27;;
49510;SDS011;35413;48.776;9.204;2022-11-15T02:05:51;1.70;;;1.38;;
49510;SDS011;35413;48.776;9.204;2022-11-15T02:08:18;2.25;;;1.25;;
49510;SDS011;35413;48.776;9.204;2022-11-15T02:10:45;2.42;;;1.35;;
49510;SDS011;35413;48.776;9.204;2022-11-15T02:13:12;2.25;;;1.50;;
49510;SDS011;35413;48.776;9.204;2022-11-15T02:15:40;2.22;;;1.73;;
49510;SDS011;35413;48.776;9.204;2022-11-15T02:18:09;2.33;;;1.30;;
49510;SDS011;35413;48.776;9.204;2022-11-15T02:20:41;3.00;;;1.40;;
49510;SDS011;35413;48.776;9.204;2022-11-15T02:23:14;1.92;;;1.25;;
49510;SDS011;35413;48.776;9.204;2022-11-15T02:33:26;1.77;;;1.10;;
49510;SDS011;35413;48.776;9.204;2022-11-15T02:35:57;2.00;;;1.50;;
49510;SDS011;35413;48.776;9.204;2022-11-15T02:38:38;2.23;;;1.50;;
49510;SDS011;35413;48.776;9.204;2022-11-15T02:41:07;1.63;;;1.20;;
49510;SDS011;35413;48.776;9.204;2022-11-15T02:43:39;1.65;;;1.38;;
49510;SDS011;35413;48.776;9.204;2022-11-15T02:46:33;2.10;;;1.60;;
49510;SDS011;35413;48.776;9.204;2022-11-15T02:49:19;1.70;;;1.35;;
49510;SDS011;35413;48.776;9.204;2022-11-15T02:51:46;1.60;;;1.40;;
49510;SDS011;35413;48.776;9.204;2022-11-15T02:54:20;2.63;;;1.50;;
49510;SDS011;35413;48.776;9.204;2022-11-15T02:56:47;1.75;;;1.23;;
49510;SDS011;35413;48.776;9.204;2022-11-15T03:07:09;2.50;;;1.10;;
49510;SDS011;35413;48.776;9.204;2022-11-15T03:09:41;2.03;;;1.52;;
49510;SDS011;35413;48.776;9.204;2022-11-15T03:12:16;2.05;;;1.40;;
49510;SDS011;35413;48.776;9.204;2022-11-15T03:14:57;1.67;;;1.20;;
49510;SDS011;35413;48.776;9.204;2022-11-15T03:17:27;3.03;;;1.77;;
49510;SDS011;35413;48.776;9.204;2022-11-15T03:19:55;1.38;;;0.93;;
49510;SDS011;35413;48.776;9.204;2022-11-15T03:22:23;2.35;;;1.40;;
49510;SDS011;35413;48.776;9.204;2022-11-15T03:24:51;1.98;;;1.20;;
49510;SDS011;35413;48.776;9.204;2022-11-15T03:27:19;2.08;;;1.40;;
49510;SDS011;35413;48.776;9.204;2022-11-15T03:29:48;2.25;;;1.48;;
49510;SDS011;35413;48.776;9.204;2022-11-15T03:32:20;3.55;;;1.23;;
49510;SDS011;35413;48.776;9.204;2022-11-15T03:34:49;1.45;;;1.08;;
49510;SDS011;35413;48.776;9.204;2022-11-15T03:37:16;2.70;;;1.38;;
49510;SDS011;35413;48.776;9.204;2022-11-15T03:39:43;2.22;;;1.40;;
49510;SDS011;35413;48.776;9.204;2022-11-15T03:42:18;1.63;;;1.30;;
49510;SDS011;35413;48.776;9.204;2022-11-15T03:44:59;1.60;;;1.20;;
49510;SDS011;35413;48.776;9.204;2022-11-15T03:47:29;2.40;;;1.13;;
49510;SDS011;35413;48.776;9.204;2022-11-15T03:50:01;2.25;;;1.17;;
49510;SDS011;35413;48.776;9.204;2022-11-15T03:52:30;1.40;;;1.05;;
49510;SDS011;35413;48.776;9.204;2022-11-15T03:54:57;2.47;;;1.20;;
49510;SDS011;35413;48.776;9.204;2022-11-15T03:57:26;1.83;;;1.40;;
49510;SDS011;35413;48.776;9.204;2022-11-15T03:59:52;1.77;;;1.15;;
49510;SDS011;35413;48.776;9.204;2022-11-15T04:02:18;2.33;;;1.23;;
49510;SDS011;35413;48.776;9.204;2022-11-15T04:04:44;2.58;;;1.30;;
49510;SDS011;35413;48.776;9.204;2022-11-15T04:07:10;1.83;;;1.10;;
49510;SDS011;35413;48.776;9.204;2022-11-15T04:09:36;1.30;;;1.20;;
49510;SDS011;35413;48.776;9.204;2022-11-15T04:12:22;1.60;;;1.10;;
49510;SDS011;35413;48.776;9.204;2022-11-15T04:15:00;1.60;;;1.05;;
49510;SDS011;35413;48.776;9.204;2022-11-15T04:17:37;3.00;;;1.33;;
49510;SDS011;35413;48.776;9.204;2022-11-15T04:20:04;1.83;;;1.02;;
49510;SDS011;35413;48.776;9.204;2022-11-15T04:22:48;1.23;;;1.02;;
49510;SDS011;35413;48.776;9.204;2022-11-15T04:25:36;1.20;;;1.10;;
49510;SDS011;35413;48.776;9.204;2022-11-15T04:28:02;1.77;;;1.58;;
49510;SDS011;35413;48.776;9.204;2022-11-15T04:30:28;1.55;;;0.95;;
49510;SDS011;35413;48.776;9.204;2022-11-15T04:32:54;1.13;;;0.82;;
49510;SDS011;35413;48.776;9.204;2022-11-15T04:35:20;0.95;;;0.85;;
49510;SDS011;35413;48.776;9.204;2022-11-15T04:37:46;1.27;;;1.00;;
49510;SDS011;35413;48.776;9.204;2022-11-15T04:40:12;1.38;;;1.23;;
49510;SDS011;35413;48.776;9.204;2022-11-15T04:42:40;1.52;;;1.13;;
49510;SDS011;35413;48.776;9.204;2022-11-15T04:45:06;1.10;;;1.00;;
49510;SDS011;35413;48.776;9.204;2022-11-15T04:47:32;2.22;;;1.10;;
49510;SDS011;35413;48.776;9.204;2022-11-15T04:49:58;1.73;;;1.20;;
49510;SDS011;35413;48.776;9.204;2022-11-15T04:52:24;1.27;;;1.05;;
49510;SDS011;35413;48.776;9.204;2022-11-15T04:54:50;2.05;;;1.40;;
49510;SDS011;35413;48.776;9.204;2022-11-15T04:57:16;2.33;;;1.00;;
49510;SDS011;35413;48.776;9.204;2022-11-15T04:59:42;1.30;;;1.17;;
49510;SDS011;35413;48.776;9.204;2022-11-15T05:02:08;1.88;;;1.35;;
49510;SDS011;35413;48.776;9.204;2022-11-15T05:04:34;1.55;;;1.05;;
49510;SDS011;35413;48.776;9.204;2022-11-15T05:07:00;1.92;;;1.10;;
49510;SDS011;35413;48.776;9.204;2022-11-15T05:09:29;2.30;;;1.20;;
49510;SDS011;35413;48.776;9.204;2022-11-15T05:11:55;1.30;;;1.08;;
49510;SDS011;35413;48.776;9.204;2022-11-15T05:14:21;2.08;;;1.52;;
49510;SDS011;35413;48.776;9.204;2022-11-15T05:16:47;1.90;;;1.15;;
49510;SDS011;35413;48.776;9.204;2022-11-15T05:19:13;2.92;;;1.20;;
49510;SDS011;35413;48.776;9.204;2022-11-15T05:21:39;1.48;;;1.15;;
49510;SDS011;35413;48.776;9.204;2022-11-15T05:24:05;1.40;;;0.95;;
49510;SDS011;35413;48.776;9.204;2022-11-15T05:26:31;1.52;;;1.08;;
49510;SDS011;35413;48.776;9.204;2022-11-15T05:28:58;2.15;;;0.70;;
49510;SDS011;35413;48.776;9.204;2022-11-15T05:31:24;1.65;;;1.15;;
49510;SDS011;35413;48.776;9.204;2022-11-15T05:33:50;1.80;;;1.20;;
49510;SDS011;35413;48.776;9.204;2022-11-15T05:36:22;2.08;;;1.05;;
49510;SDS011;35413;48.776;9.204;2022-11-15T05:38:51;1.77;;;1.30;;
49510;SDS011;35413;48.776;9.204;2022-11-15T05:41:18;2.28;;;1.10;;
49510;SDS011;35413;48.776;9.204;2022-11-15T05:43:45;1.85;;;1.27;;
49510;SDS011;35413;48.776;9.204;2022-11-15T05:46:12;1.50;;;1.20;;
49510;SDS011;35413;48.776;9.204;2022-11-15T05:48:39;1.17;;;0.93;;
49510;SDS011;35413;48.776;9.204;2022-11-15T05:51:06;1.77;;;1.00;;
49510;SDS011;35413;48.776;9.204;2022-11-15T05:53:33;1.83;;;1.15;;
49510;SDS011;35413;48.776;9.204;2022-11-15T05:56:00;1.00;;;0.90;;
49510;SDS011;35413;48.776;9.204;2022-11-15T05:58:26;1.42;;;1.00;;
49510;SDS011;35413;48.776;9.204;2022-11-15T06:00:52;2.22;;;1.10;;
49510;SDS011;35413;48.776;9.204;2022-11-15T06:03:19;2.13;;;1.10;;
49510;SDS011;35413;48.776;9.204;2022-11-15T06:05:45;2.13;;;1.02;;
49510;SDS011;35413;48.776;9.204;2022-11-15T06:08:11;1.38;;;1.05;;
49510;SDS011;35413;48.776;9.204;2022-11-15T06:10:37;1.55;;;0.98;;
49510;SDS011;35413;48.776;9.204;2022-11-15T06:13:03;1.52;;;1.10;;
49510;SDS011;35413;48.776;9.204;2022-11-15T06:15:31;1.58;;;0.88;;
49510;SDS011;35413;48.776;9.204;2022-11-15T06:17:57;2.47;;;1.00;;
49510;SDS011;35413;48.776;9.204;2022-11-15T06:20:26;1.38;;;1.08;;
49510;SDS011;35413;48.776;9.204;2022-11-15T06:22:56;1.55;;;1.10;;
49510;SDS011;35413;48.776;9.204;2022-11-15T06:25:22;1.20;;;0.88;;
49510;SDS011;35413;48.776;9.204;2022-11-15T06:27:52;1.38;;;1.08;;
49510;SDS011;35413;48.776;9.204;2022-11-15T06:30:18;1.80;;;1.10;;
49510;SDS011;35413;48.776;9.204;2022-11-15T06:32:44;3.63;;;1.10;;
49510;SDS011;35413;48.776;9.204;2022-11-15T06:35:11;1.73;;;1.15;;
49510;SDS011;35413;48.776;9.204;2022-11-15T06:37:37;3.85;;;1.13;;
49510;SDS011;35413;48.776;9.204;2022-11-15T06:40:03;3.33;;;1.02;;
49510;SDS011;35413;48.776;9.204;2022-11-15T06:42:29;1.55;;;1.02;;
49510;SDS011;35413;48.776;9.204;2022-11-15T06:44:55;2.97;;;1.65;;
49510;SDS011;35413;48.776;9.204;2022-11-15T06:47:21;1.60;;;1.05;;
49510;SDS011;35413;48.776;9.204;2022-11-15T06:49:47;2.53;;;1.10;;
49510;SDS011;35413;48.776;9.204;2022-11-15T06:52:13;2.20;;;1.55;;
49510;SDS011;35413;48.776;9.204;2022-11-15T06:54:39;3.88;;;1.77;;
49510;SDS011;35413;48.776;9.204;2022-11-15T06:57:05;3.35;;;1.63;;
49510;SDS011;35413;48.776;9.204;2022-11-15T06:59:31;6.15;;;1.50;;
49510;SDS011;35413;48.776;9.204;2022-11-15T07:01:57;3.15;;;1.80;;
49510;SDS011;35413;48.776;9.204;2022-11-15T07:04:23;3.67;;;2.08;;
49510;SDS011;35413;48.776;9.204;2022-11-15T07:06:49;2.28;;;1.80;;
49510;SDS011;35413;48.776;9.204;2022-11-15T07:09:15;4.55;;;2.25;;
49510;SDS011;35413;48.776;9.204;2022-11-15T07:11:41;4.80;;;2.42;;
49510;SDS011;35413;48.776;9.204;2022-11-15T07:14:07;3.40;;;2.10;;
49510;SDS011;35413;48.776;9.204;2022-11-15T07:16:33;2.90;;;1.73;;
49510;SDS011;35413;48.776;9.204;2022-11-15T07:18:59;5.47;;;2.00;;
49510;SDS011;35413;48.776;9.204;2022-11-15T07:21:25;6.63;;;1.85;;
49510;SDS011;35413;48.776;9.204;2022-11-15T07:23:51;3.20;;;1.73;;
49510;SDS011;35413;48.776;9.204;2022-11-15T07:26:17;3.38;;;1.85;;
49510;SDS011;35413;48.776;9.204;2022-11-15T07:28:43;4.05;;;1.60;;
49510;SDS011;35413;48.776;9.204;2022-11-15T07:31:09;5.13;;;1.90;;
49510;SDS011;35413;48.776;9.204;2022-11-15T07:33:35;4.05;;;1.75;;
49510;SDS011;35413;48.776;9.204;2022-11-15T07:36:02;5.63;;;1.73;;
49510;SDS011;35413;48.776;9.204;2022-11-15T07:38:28;3.25;;;1.35;;
49510;SDS011;35413;48.776;9.204;2022-11-15T07:40:58;4.07;;;1.73;;
49510;SDS011;35413;48.776;9.204;2022-11-15T07:43:24;5.95;;;1.48;;
49510;SDS011;35413;48.776;9.204;2022-11-15T07:45:52;2.83;;;1.90;;
49510;SDS011;35413;48.776;9.204;2022-11-15T07:48:18;3.83;;;1.77;;
49510;SDS011;35413;48.776;9.204;2022-11-15T07:50:44;2.25;;;1.67;;
49510;SDS011;35413;48.776;9.204;2022-11-15T07:53:10;2.95;;;1.48;;
49510;SDS011;35413;48.776;9.204;2022-11-15T07:55:37;3.83;;;1.67;;
49510;SDS011;35413;48.776;9.204;2022-11-15T07:58:04;3.67;;;1.45;;
49510;SDS011;35413;48.776;9.204;2022-11-15T08:00:30;8.30;;;2.03;;
49510;SDS011;35413;48.776;9.204;2022-11-15T08:03:06;5.03;;;2.38;;
49510;SDS011;35413;48.776;9.204;2022-11-15T08:05:33;2.38;;;1.40;;
49510;SDS011;35413;48.776;9.204;2022-11-15T08:07:59;4.43;;;1.77;;
49510;SDS011;35413;48.776;9.204;2022-11-15T08:10:25;2.47;;;1.50;;
49510;SDS011;35413;48.776;9.204;2022-11-15T08:13:01;5.47;;;1.73;;
49510;SDS011;35413;48.776;9.204;2022-11-15T08:15:28;4.22;;;2.35;;
49510;SDS011;35413;48.776;9.204;2022-11-15T08:17:59;3.38;;;1.67;;
49510;SDS011;35413;48.776;9.204;2022-11-15T08:20:25;3.30;;;1.65;;
49510;SDS011;35413;48.776;9.204;2022-11-15T08:22:51;3.63;;;1.83;;
49510;SDS011;35413;48.776;9.204;2022-11-15T08:25:17;3.60;;;1.85;;
49510;SDS011;35413;48.776;9.204;2022-11-15T08:27:43;5.18;;;1.88;;
49510;SDS011;35413;48.776;9.204;2022-11-15T08:30:10;2.45;;;1.30;;
49510;SDS011;35413;48.776;9.204;2022-11-15T08:32:36;3.45;;;1.92;;
49510;SDS011;35413;48.776;9.204;2022-11-15T08:35:02;4.95;;;2.00;;
49510;SDS011;35413;48.776;9.204;2022-11-15T08:37:28;3.33;;;1.55;;
49510;SDS011;35413;48.776;9.204;2022-11-15T08:39:54;4.15;;;2.30;;
49510;SDS011;35413;48.776;9.204;2022-11-15T08:42:20;4.22;;;2.28;;
49510;SDS011;35413;48.776;9.204;2022-11-15T08:44:46;3.95;;;1.85;;
49510;SDS011;35413;48.776;9.204;2022-11-15T08:47:12;4.47;;;2.78;;
49510;SDS011;35413;48.776;9.204;2022-11-15T08:49:38;3.65;;;1.63;;
49510;SDS011;35413;48.776;9.204;2022-11-15T08:52:04;2.85;;;1.45;;
49510;SDS011;35413;48.776;9.204;2022-11-15T08:54:30;5.25;;;1.67;;
49510;SDS011;35413;48.776;9.204;2022-11-15T08:56:56;5.78;;;1.85;;
49510;SDS011;35413;48.776;9.204;2022-11-15T08:59:22;2.78;;;1.45;;
49510;SDS011;35413;48.776;9.204;2022-11-15T09:01:48;2.88;;;1.73;;
49510;SDS011;35413;48.776;9.204;2022-11-15T09:04:14;4.13;;;1.60;;
49510;SDS011;35413;48.776;9.204;2022-11-15T09:06:40;4.53;;;1.83;;
49510;SDS011;35413;48.776;9.204;2022-11-15T09:09:06;2.40;;;1.88;;
49510;SDS011;35413;48.776;9.204;2022-11-15T09:11:32;3.60;;;1.65;;
49510;SDS011;35413;48.776;9.204;2022-11-15T09:13:58;2.97;;;2.08;;
49510;SDS011;35413;48.776;9.204;2022-11-15T09:16:24;3.83;;;2.10;;
49510;SDS011;35413;48.776;9.204;2022-11-15T09:18:50;2.92;;;1.90;;
49510;SDS011;35413;48.776;9.204;2022-11-15T09:21:16;6.82;;;2.38;;
49510;SDS011;35413;48.776;9.204;2022-11-15T09:23:42;5.43;;;2.00;;
49510;SDS011;35413;48.776;9.204;2022-11-15T09:26:08;6.60;;;3.25;;
49510;SDS011;35413;48.776;9.204;2022-11-15T09:28:34;3.60;;;2.28;;
49510;SDS011;35413;48.776;9.204;2022-11-15T09:31:02;3.97;;;1.95;;
49510;SDS011;35413;48.776;9.204;2022-11-15T09:33:28;4.60;;;2.00;;
49510;SDS011;35413;48.776;9.204;2022-11-15T09:35:59;3.70;;;1.58;;
49510;SDS011;35413;48.776;9.204;2022-11-15T09:38:26;4.50;;;1.80;;
49510;SDS011;35413;48.776;9.204;2022-11-15T09:40:57;5.65;;;2.30;;
49510;SDS011;35413;48.776;9.204;2022-11-15T09:48:35;2.28;;;1.60;;
49510;SDS011;35413;48.776;9.204;2022-11-15T09:51:03;3.40;;;1.83;;
49510;SDS011;35413;48.776;9.204;2022-11-15T09:53:34;4.00;;;1.60;;
49510;SDS011;35413;48.776;9.204;2022-11-15T09:56:05;3.85;;;1.92;;
49510;SDS011;35413;48.776;9.204;2022-11-15T09:58:38;4.07;;;1.90;;
49510;SDS011;35413;48.776;9.204;2022-11-15T10:01:12;3.45;;;1.58;;
49510;SDS011;35413;48.776;9.204;2022-11-15T10:03:40;7.22;;;2.10;;
49510;SDS011;35413;48.776;9.204;2022-11-15T10:06:16;3.25;;;1.65;;
49510;SDS011;35413;48.776;9.204;2022-11-15T10:08:56;4.55;;;2.15;;
49510;SDS011;35413;48.776;9.204;2022-11-15T10:11:27;3.50;;;2.00;;
49510;SDS011;35413;48.776;9.204;2022-11-15T10:13:56;3.90;;;1.83;;
49510;SDS011;35413;48.776;9.204;2022-11-15T10:18:59;7.70;;;2.20;;
49510;SDS011;35413;48.776;9.204;2022-11-15T10:24:12;4.20;;;1.92;;
49510;SDS011;35413;48.776;9.204;2022-11-15T10:26:38;4.65;;;1.90;;
49510;SDS011;35413;48.776;9.204;2022-11-15T10:29:05;2.72;;;1.60;;
49510;SDS011;35413;48.776;9.204;2022-11-15T10:31:31;4.40;;;2.33;;
49510;SDS011;35413;48.776;9.204;2022-11-15T10:34:11;4.07;;;1.90;;
49510;SDS011;35413;48.776;9.204;2022-11-15T10:36:38;3.65;;;2.00;;
49510;SDS011;35413;48.776;9.204;2022-11-15T10:39:04;2.75;;;1.52;;
49510;SDS011;35413;48.776;9.204;2022-11-15T10:41:31;2.88;;;1.90;;
49510;SDS011;35413;48.776;9.204;2022-11-15T10:44:11;3.22;;;1.95;;
49510;SDS011;35413;48.776;9.204;2022-11-15T10:46:38;4.10;;;2.10;;
49510;SDS011;35413;48.776;9.204;2022-11-15T10:49:12;3.35;;;1.50;;
49510;SDS011;35413;48.776;9.204;2022-11-15T10:51:43;4.57;;;1.63;;
49510;SDS011;35413;48.776;9.204;2022-11-15T10:54:10;3.97;;;1.70;;
49510;SDS011;35413;48.776;9.204;2022-11-15T10:56:38;4.72;;;1.90;;
49510;SDS011;35413;48.776;9.204;2022-11-15T10:59:04;3.88;;;1.80;;
49510;SDS011;35413;48.776;9.204;2022-11-15T11:01:31;2.72;;;1.42;;
49510;SDS011;35413;48.776;9.204;2022-11-15T11:04:10;3.42;;;1.77;;
49510;SDS011;35413;48.776;9.204;2022-11-15T11:06:46;4.18;;;2.47;;
49510;SDS011;35413;48.776;9.204;2022-11-15T11:09:21;2.90;;;1.58;;
49510;SDS011;35413;48.776;9.204;2022-11-15T11:11:48;3.55;;;2.13;;
49510;SDS011;35413;48.776;9.204;2022-11-15T11:14:22;3.58;;;2.30;;
49510;SDS011;35413;48.776;9.204;2022-11-15T11:19:23;10.70;;;2.03;;
49510;SDS011;35413;48.776;9.204;2022-11-15T11:27:04;9.30;;;2.50;;
49510;SDS011;35413;48.776;9.204;2022-11-15T11:29:47;10.20;;;3.78;;
49510;SDS011;35413;48.776;9.204;2022-11-15T11:32:23;15.90;;;4.00;;
49510;SDS011;35413;48.776;9.204;2022-11-15T11:35:28;13.48;;;4.18;;
49510;SDS011;35413;48.776;9.204;2022-11-15T11:45:19;8.93;;;3.83;;
49510;SDS011;35413;48.776;9.204;2022-11-15T11:47:51;5.72;;;2.92;;
49510;SDS011;35413;48.776;9.204;2022-11-15T11:50:22;6.05;;;2.85;;
49510;SDS011;35413;48.776;9.204;2022-11-15T11:55:37;5.53;;;2.80;;
49510;SDS011;35413;48.776;9.204;2022-11-15T12:00:38;9.55;;;2.72;;
49510;SDS011;35413;48.776;9.204;2022-11-15T12:03:14;5.18;;;2.53;;
49510;SDS011;35413;48.776;9.204;2022-11-15T12:05:43;6.28;;;3.10;;
49510;SDS011;35413;48.776;9.204;2022-11-15T12:08:24;5.18;;;2.65;;
49510;SDS011;35413;48.776;9.204;2022-11-15T12:10:57;5.35;;;2.13;;
49510;SDS011;35413;48.776;9.204;2022-11-15T12:13:25;8.57;;;2.70;;
49510;SDS011;35413;48.776;9.204;2022-11-15T12:15:56;6.95;;;2.60;;
49510;SDS011;35413;48.776;9.204;2022-11-15T12:18:23;5.60;;;2.10;;
49510;SDS011;35413;48.776;9.204;2022-11-15T12:20:55;3.53;;;2.42;;
49510;SDS011;35413;48.776;9.204;2022-11-15T12:23:38;4.85;;;2.28;;
49510;SDS011;35413;48.776;9.204;2022-11-15T12:26:09;8.80;;;2.53;;
49510;SDS011;35413;48.776;9.204;2022-11-15T12:31:14;6.90;;;2.08;;
49510;SDS011;35413;48.776;9.204;2022-11-15T12:33:43;3.95;;;2.67;;
49510;SDS011;35413;48.776;9.204;2022-11-15T12:36:11;4.57;;;2.00;;
49510;SDS011;35413;48.776;9.204;2022-11-15T12:38:57;5.22;;;2.47;;
49510;SDS011;35413;48.776;9.204;2022-11-15T12:41:27;4.97;;;1.98;;
49510;SDS011;35413;48.776;9.204;2022-11-15T12:43:54;6.28;;;2.33;;
49510;SDS011;35413;48.776;9.204;2022-11-15T12:48:50;5.28;;;2.40;;
49510;SDS011;35413;48.776;9.204;2022-11-15T12:51:17;3.97;;;2.00;;
49510;SDS011;35413;48.776;9.204;2022-11-15T12:53:44;3.22;;;1.65;;
49510;SDS011;35413;48.776;9.204;2022-11-15T13:06:44;5.30;;;2.72;;
49510;SDS011;35413;48.776;9.204;2022-11-15T13:11:55;4.65;;;2.08;;
49510;SDS011;35413;48.776;9.204;2022-11-15T13:19:44;3.28;;;1.90;;
49510;SDS011;35413;48.776;9.204;2022-11-15T13:22:11;7.18;;;2.70;;
49510;SDS011;35413;48.776;9.204;2022-11-15T13:24:56;4.15;;;1.63;;
49510;SDS011;35413;48.776;9.204;2022-11-15T13:27:22;3.75;;;1.77;;
49510;SDS011;35413;48.776;9.204;2022-11-15T13:29:48;2.55;;;2.03;;
49510;SDS011;35413;48.776;9.204;2022-11-15T13:32:15;5.45;;;1.70;;
49510;SDS011;35413;48.776;9.204;2022-11-15T13:34:45;5.35;;;2.28;;
49510;SDS011;35413;48.776;9.204;2022-11-15T13:39:47;2.70;;;1.73;;
49510;SDS011;35413;48.776;9.204;2022-11-15T13:42:17;3.03;;;1.42;;
49510;SDS011;35413;48.776;9.204;2022-11-15T13:44:57;3.95;;;2.03;;
49510;SDS011;35413;48.776;9.204;2022-11-15T13:47:25;2.85;;;1.60;;
49510;SDS011;35413;48.776;9.204;2022-11-15T13:49:57;2.45;;;1.48;;
49510;SDS011;35413;48.776;9.204;2022-11-15T13:52:25;3.00;;;1.73;;
49510;SDS011;35413;48.776;9.204;2022-11-15T13:57:23;3.70;;;1.70;;
49510;SDS011;35413;48.776;9.204;2022-11-15T13:59:57;3.28;;;1.70;;
49510;SDS011;35413;48.776;9.204;2022-11-15T14:02:26;4.30;;;2.40;;
49510;SDS011;35413;48.776;9.204;2022-11-15T14:04:53;3.08;;;1.48;;
49510;SDS011;35413;48.776;9.204;2022-11-15T14:07:21;7.40;;;2.05;;
49510;SDS011;35413;48.776;9.204;2022-11-15T14:09:47;4.22;;;1.60;;
49510;SDS011;35413;48.776;9.204;2022-11-15T14:12:49;3.85;;;1.88;;
49510;SDS011;35413;48.776;9.204;2022-11-15T14:17:50;3.13;;;1.50;;
49510;SDS011;35413;48.776;9.204;2022-11-15T14:20:20;4.07;;;1.85;;
49510;SDS011;35413;48.776;9.204;2022-11-15T14:22:53;2.85;;;1.52;;
49510;SDS011;35413;48.776;9.204;2022-11-15T14:25:23;3.05;;;1.42;;
49510;SDS011;35413;48.776;9.204;2022-11-15T14:30:34;5.15;;;2.17;;
49510;SDS011;35413;48.776;9.204;2022-11-15T14:33:00;2.83;;;1.50;;
49510;SDS011;35413;48.776;9.204;2022-11-15T14:35:26;5.55;;;1.70;;
49510;SDS011;35413;48.776;9.204;2022-11-15T14:37:52;3.20;;;1.77;;
49510;SDS011;35413;48.776;9.204;2022-11-15T14:40:19;3.75;;;1.33;;
49510;SDS011;35413;48.776;9.204;2022-11-15T14:42:46;2.97;;;1.73;;
49510;SDS011;35413;48.776;9.204;2022-11-15T14:45:19;3.85;;;1.80;;
49510;SDS011;35413;48.776;9.204;2022-11-15T14:47:46;3.15;;;1.70;;
49510;SDS011;35413;48.776;9.204;2022-11-15T14:50:12;2.30;;;1.30;;
49510;SDS011;35413;48.776;9.204;2022-11-15T14:52:39;4.90;;;1.65;;
49510;SDS011;35413;48.776;9.204;2022-11-15T14:55:14;2.88;;;1.60;;
49510;SDS011;35413;48.776;9.204;2022-11-15T14:57:41;2.83;;;1.30;;
49510;SDS011;35413;48.776;9.204;2022-11-15T15:00:07;3.45;;;1.40;;
49510;SDS011;35413;48.776;9.204;2022-11-15T15:02:34;3.17;;;1.63;;
49510;SDS011;35413;48.776;9.204;2022-11-15T15:05:01;3.10;;;1.48;;
49510;SDS011;35413;48.776;9.204;2022-11-15T15:07:28;2.63;;;1.50;;
49510;SDS011;35413;48.776;9.204;2022-11-15T15:09:54;2.75;;;1.73;;
49510;SDS011;35413;48.776;9.204;2022-11-15T15:12:21;3.35;;;2.00;;
49510;SDS011;35413;48.776;9.204;2022-11-15T15:14:48;2.95;;;1.50;;
49510;SDS011;35413;48.776;9.204;2022-11-15T15:17:15;3.00;;;1.38;;
49510;SDS011;35413;48.776;9.204;2022-11-15T15:19:41;3.08;;;1.83;;
49510;SDS011;35413;48.776;9.204;2022-11-15T15:22:17;3.05;;;1.88;;
49510;SDS011;35413;48.776;9.204;2022-11-15T15:24:43;5.45;;;1.80;;
49510;SDS011;35413;48.776;9.204;2022-11-15T15:27:10;6.90;;;1.92;;
49510;SDS011;35413;48.776;9.204;2022-11-15T15:29:36;3.17;;;1.40;;
49510;SDS011;35413;48.776;9.204;2022-11-15T15:32:02;3.35;;;1.90;;
49510;SDS011;35413;48.776;9.204;2022-11-15T15:34:28;2.47;;;1.50;;
49510;SDS011;35413;48.776;9.204;2022-11-15T15:39:35;4.90;;;1.80;;
49510;SDS011;35413;48.776;9.204;2022-11-15T15:42:01;2.92;;;1.40;;
49510;SDS011;35413;48.776;9.204;2022-11-15T15:44:28;5.75;;;2.00;;
49510;SDS011;35413;48.776;9.204;2022-11-15T15:46:54;3.20;;;1.80;;
49510;SDS011;35413;48.776;9.204;2022-11-15T15:49:22;4.00;;;1.50;;
49510;SDS011;35413;48.776;9.204;2022-11-15T15:51:48;5.93;;;1.42;;
49510;SDS011;35413;48.776;9.204;2022-11-15T15:54:14;5.05;;;1.75;;
49510;SDS011;35413;48.776;9.204;2022-11-15T15:56:40;3.67;;;1.83;;
49510;SDS011;35413;48.776;9.204;2022-11-15T15:59:06;2.47;;;1.75;;
49510;SDS011;35413;48.776;9.204;2022-11-15T16:01:32;3.50;;;1.65;;
49510;SDS011;35413;48.776;9.204;2022-11-15T16:03:58;3.50;;;1.73;;
49510;SDS011;35413;48.776;9.204;2022-11-15T16:06:42;6.47;;;1.70;;
49510;SDS011;35413;48.776;9.204;2022-11-15T16:09:15;3.10;;;1.50;;
49510;SDS011;35413;48.776;9.204;2022-11-15T16:11:43;3.20;;;1.50;;
49510;SDS011;35413;48.776;9.204;2022-11-15T16:14:09;3.00;;;1.73;;
49510;SDS011;35413;48.776;9.204;2022-11-15T16:16:35;3.47;;;1.48;;
49510;SDS011;35413;48.776;9.204;2022-11-15T16:19:02;1.92;;;1.30;;